createdAt,value
2022-12-13T00:04:02.334Z,27.2
2022-12-13T00:09:41.449Z,26.9
2022-12-13T00:15:19.161Z,26.8
2022-12-13T00:20:57.475Z,27.5
2022-12-13T00:26:42.274Z,28.7
2022-12-13T00:33:02.896Z,28.6
2022-12-13T00:38:24.542Z,27.3
2022-12-13T00:44:02.340Z,26.8
2022-12-13T00:49:42.160Z,27.1
2022-12-13T00:55:19.434Z,28.4
2022-12-13T01:00:48.454Z,28.6
2022-12-13T01:07:04.521Z,27.6
2022-12-13T01:12:42.270Z,26.8
2022-12-13T01:18:20.950Z,26.9
2022-12-13T01:24:00.568Z,28
2022-12-13T01:29:27.347Z,28.7
2022-12-13T01:35:15.991Z,28.3
2022-12-13T01:41:34.492Z,27.6
2022-12-13T01:47:24.256Z,28.7
2022-12-13T01:53:16.724Z,28.4
2022-12-13T01:59:09.222Z,27.1
2022-12-13T02:04:27.072Z,26.6
2022-12-13T02:09:59.205Z,26.9
2022-12-13T02:15:36.910Z,28.1
2022-12-13T02:21:28.177Z,27.6
2022-12-13T02:27:12.448Z,27.1
2022-12-13T02:33:24.824Z,28.4
2022-12-13T02:38:57.704Z,28.4
2022-12-13T02:45:15.782Z,27.5
2022-12-13T02:50:58.778Z,28.4
2022-12-13T02:56:39.386Z,28.5
2022-12-13T03:02:31.360Z,27.5
2022-12-13T03:07:46.465Z,28.1
2022-12-13T03:13:11.906Z,28.6
2022-12-13T03:18:37.914Z,28.2
2022-12-13T03:24:03.339Z,27.5
2022-12-13T03:29:58.845Z,28.4
2022-12-13T03:36:17.842Z,28.5
2022-12-13T03:41:59.368Z,27.4
2022-12-13T03:47:37.776Z,28.1
2022-12-13T03:53:48.202Z,28.8
2022-12-13T03:59:40.788Z,28.1
2022-12-13T04:05:17.751Z,27.8
2022-12-13T04:11:50.081Z,28.6
2022-12-13T04:17:31.653Z,28.3
2022-12-13T04:22:59.769Z,27.6
2022-12-13T04:28:42.433Z,28.1
2022-12-13T04:34:07.953Z,27.7
2022-12-13T04:39:38.820Z,27.4
2022-12-13T04:45:02.915Z,28.4
2022-12-13T04:50:45.709Z,28.4
2022-12-13T04:56:04.613Z,27.5
2022-12-13T05:01:43.940Z,27.9
2022-12-13T05:07:01.664Z,28.6
2022-12-13T05:13:29.145Z,28.3
2022-12-13T05:19:17.125Z,27.5
2022-12-13T05:24:46.379Z,28.4
2022-12-13T05:30:38.485Z,28.6
2022-12-13T05:36:33.637Z,27.6
2022-12-13T05:42:35.307Z,26.6
2022-12-13T05:48:10.593Z,26.1
2022-12-13T05:53:50.085Z,25.7
2022-12-13T05:59:26.693Z,26.3
2022-12-13T06:05:28.855Z,27.3
2022-12-13T06:12:05.105Z,27.6
2022-12-13T06:19:21.264Z,26.6
2022-12-13T06:25:03.380Z,25.9
2022-12-13T06:30:35.146Z,25.4
2022-12-13T06:36:53.339Z,25.9
2022-12-13T06:42:40.441Z,26.8
2022-12-13T06:48:37.561Z,27.6
2022-12-13T06:54:21.978Z,27.3
2022-12-13T07:00:08.141Z,26.6
2022-12-13T07:06:48.854Z,27.6
2022-12-13T07:12:41.818Z,27.4
2022-12-13T07:18:22.139Z,26.1
2022-12-13T07:24:28.510Z,25.7
2022-12-13T07:30:28.938Z,25.2
2022-12-13T07:36:12.265Z,25.8
2022-12-13T07:42:17.742Z,26.2
2022-12-13T07:48:01.848Z,26.2
2022-12-13T07:54:06.992Z,26.3
2022-12-13T08:00:04.832Z,27.4
2022-12-13T08:06:16.605Z,27.3
2022-12-13T08:11:54.212Z,26.4
2022-12-13T08:17:49.778Z,27.4
2022-12-13T08:24:32.313Z,27.4
2022-12-13T08:30:24.618Z,26.2
2022-12-13T08:36:09.172Z,25.6
2022-12-13T08:41:57.186Z,25.1
2022-12-13T08:47:42.867Z,25.6
2022-12-13T08:53:28.791Z,26.8
2022-12-13T08:59:24.739Z,27.5
2022-12-13T09:05:32.740Z,27.3
2022-12-13T09:12:29.463Z,26.4
2022-12-13T09:19:24.832Z,27.6
2022-12-13T09:26:25.287Z,27.3
2022-12-13T09:32:15.685Z,25.8
2022-12-13T09:38:19.155Z,25.6
2022-12-13T09:45:42.689Z,26.5
2022-12-13T09:53:33.363Z,27.6
2022-12-13T09:59:47.690Z,26.6
2022-12-13T10:05:40.022Z,26.9
2022-12-13T10:11:31.141Z,26.8
2022-12-13T10:17:26.230Z,26.3
2022-12-13T10:24:41.476Z,27.5
2022-12-13T10:30:42.658Z,27.4
2022-12-13T10:36:31.141Z,26
2022-12-13T10:42:12.728Z,25.6
2022-12-13T10:48:06.102Z,26.1
2022-12-13T10:54:03.614Z,27.4
2022-12-13T11:00:32.088Z,27.6
2022-12-13T11:06:29.049Z,26.6
2022-12-13T11:12:31.461Z,27.4
2022-12-13T11:18:10.684Z,27.6
2022-12-13T11:23:57.399Z,26.7
2022-12-13T11:30:07.715Z,27.2
2022-12-13T11:35:46.588Z,27.8
2022-12-13T11:41:12.706Z,27
2022-12-13T11:46:55.064Z,26.8
2022-12-13T11:58:53.760Z,27.6
2022-12-13T12:05:16.561Z,26.8
2022-12-13T12:17:59.034Z,27.5
2022-12-13T12:24:21.393Z,26.6
2022-12-13T12:30:07.952Z,27.3
2022-12-13T12:36:07.903Z,26.8
2022-12-13T12:50:43.686Z,27.6
2022-12-13T12:56:28.680Z,26
2022-12-13T13:02:17.280Z,25.6
2022-12-13T13:08:29.586Z,25.1
2022-12-13T13:15:30.180Z,24.8
2022-12-13T13:21:17.991Z,24.8
2022-12-13T13:28:28.010Z,25.9
2022-12-13T13:34:25.962Z,27.4
2022-12-13T13:39:54.375Z,27.4
2022-12-13T13:45:52.512Z,26.4
2022-12-13T13:51:49.645Z,25.7
2022-12-13T13:58:07.484Z,25.2
2022-12-13T14:04:02.169Z,24.8
2022-12-13T14:09:43.801Z,24.5
2022-12-13T14:15:34.332Z,24.2
2022-12-13T14:21:09.439Z,23.9
2022-12-13T14:26:42.249Z,23.7
2022-12-13T14:33:15.815Z,23.4
2022-12-13T14:39:24.576Z,23.2
2022-12-13T14:45:10.463Z,22.9
2022-12-13T14:51:04.255Z,22.8
2022-12-13T14:57:02.066Z,22.6
2022-12-13T15:02:49.281Z,22.4
2022-12-13T15:08:45.229Z,22.3
2022-12-13T15:14:59.213Z,22
2022-12-13T15:20:24.546Z,24.1
2022-12-13T15:26:27.906Z,26.3
2022-12-13T15:32:14.901Z,27.7
2022-12-13T15:38:45.529Z,28.6
2022-12-13T15:44:16.799Z,29.1
2022-12-13T15:50:15.384Z,29.4
2022-12-13T15:56:06.313Z,29.8
2022-12-13T16:01:37.777Z,29.9
2022-12-13T16:07:22.356Z,29.8
2022-12-13T16:13:26.026Z,29.7
2022-12-13T16:19:23.090Z,29.7
2022-12-13T16:25:29.142Z,29.9
2022-12-13T16:31:18.151Z,30.4
2022-12-13T16:38:09.068Z,30.7
2022-12-13T16:43:59.600Z,30.8
2022-12-13T16:51:30.464Z,30.7
2022-12-13T16:57:04.744Z,30.8
2022-12-13T17:02:28.514Z,30.6
2022-12-13T17:08:12.522Z,30.9
2022-12-13T17:14:04.827Z,31.1
2022-12-13T17:19:52.684Z,30.9
2022-12-13T17:25:48.360Z,31.1
2022-12-13T17:31:33.371Z,31.4
2022-12-13T17:36:58.814Z,31.3
2022-12-13T17:42:45.191Z,31.8
2022-12-13T17:48:19.229Z,31.9
2022-12-13T17:54:05.660Z,31.8
2022-12-13T17:59:29.949Z,31.8
2022-12-13T18:04:53.508Z,31.8
2022-12-13T18:10:24.897Z,31.9
2022-12-13T18:16:51.998Z,31.9
2022-12-13T18:23:25.327Z,31.9
2022-12-13T18:28:56.283Z,32
2022-12-13T18:34:38.214Z,31.9
2022-12-13T18:40:28.161Z,31.7
2022-12-13T18:46:18.054Z,32
2022-12-13T18:51:38.486Z,32.3
2022-12-13T18:57:09.133Z,32.6
2022-12-13T19:02:47.585Z,32.8
2022-12-13T19:08:32.171Z,32.7
2022-12-13T19:13:50.375Z,32.7
2022-12-13T19:19:22.354Z,32.8
2022-12-13T19:25:00.403Z,32.6
2022-12-13T19:30:38.524Z,32.3
2022-12-13T19:36:01.795Z,32.3
2022-12-13T19:41:46.309Z,32.3
2022-12-13T19:47:30.142Z,32.2
2022-12-13T19:53:08.618Z,32.4
2022-12-13T19:58:47.774Z,32.3
2022-12-13T20:03:55.399Z,32.4
2022-12-13T20:09:39.077Z,32.3
2022-12-13T20:15:09.942Z,32.1
2022-12-13T20:21:12.371Z,31.9
2022-12-13T20:26:29.334Z,31.6
2022-12-13T20:32:10.609Z,32.1
2022-12-13T20:38:11.939Z,32.3
2022-12-13T20:43:50.515Z,32.4
2022-12-13T20:49:02.228Z,32.3
2022-12-13T20:54:47.822Z,32.2
2022-12-13T21:00:20.274Z,32.1
2022-12-13T21:05:45.290Z,31.9
2022-12-13T21:11:09.335Z,31.8
2022-12-13T21:16:58.483Z,31.3
2022-12-13T21:22:43.418Z,31.4
2022-12-13T21:28:26.242Z,30.9
2022-12-13T21:34:04.316Z,30.6
2022-12-13T21:39:45.441Z,30.9
2022-12-13T21:45:34.966Z,30.6
2022-12-13T21:51:52.654Z,30.3
2022-12-13T21:58:08.248Z,29.9
2022-12-13T22:03:31.574Z,29.8
2022-12-13T22:08:54.283Z,29.4
2022-12-13T22:14:22.857Z,29.3
2022-12-13T22:20:07.073Z,29.1
2022-12-13T22:25:44.947Z,28.8
2022-12-13T22:31:11.607Z,28.6
2022-12-13T22:36:34.142Z,28.4
2022-12-13T22:42:14.788Z,28.2
2022-12-13T22:47:52.668Z,27.8
2022-12-13T22:53:19.920Z,27
2022-12-13T22:58:58.408Z,26.9
2022-12-13T23:04:37.594Z,27
2022-12-13T23:09:51.409Z,27.8
2022-12-13T23:15:14.226Z,28.8
2022-12-13T23:21:37.983Z,28.5
2022-12-13T23:27:15.606Z,27.4
2022-12-13T23:32:38.924Z,27
2022-12-13T23:38:22.852Z,27.6
2022-12-13T23:43:33.815Z,28.8
2022-12-13T23:49:19.254Z,28.5
2022-12-13T23:54:57.312Z,27.4
